Time;durP1;ratioP1;P1;durP2;ratioP2;P2;SDS_P1;SDS_P2;PMS_P1;PMS_P2;Temp;Humidity;BMP_temperature;BMP_pressure;BME280_temperature;BME280_humidity;BME280_pressure;Samples;Min_cycle;Max_cycle;Signal;HPM_P1;HPM_P2
2023/06/02 00:01:57;;;;;;;31.42;12.98;;;;;;;29.72;63.91;100667.97;5111107;27;70217;-41
2023/06/02 00:04:29;;;;;;;32.38;11.93;;;;;;;29.81;63.54;100666.69;5104181;27;65994;-41
2023/06/02 00:07:03;;;;;;;39.13;12.05;;;;;;;29.89;69.93;100667.44;5108816;27;69637;-41
2023/06/02 00:09:41;;;;;;;33.40;12.05;;;;;;;30.13;76.16;100669.34;5104287;27;65881;-41
2023/06/02 00:12:13;;;;;;;26.63;11.23;;;;;;;30.33;76.66;100679.22;5112820;27;69875;-41
2023/06/02 00:14:44;;;;;;;33.50;10.77;;;;;;;30.44;76.46;100687.44;5108879;27;66711;-40
2023/06/02 00:17:18;;;;;;;27.02;10.68;;;;;;;30.56;76.73;100678.59;5110035;27;69265;-41
2023/06/02 00:19:50;;;;;;;21.98;10.50;;;;;;;30.62;77.54;100694.78;5110451;27;66066;-43
2023/06/02 00:22:22;;;;;;;21.70;9.40;;;;;;;30.69;77.97;100695.53;5107333;27;70168;-40
2023/06/02 00:24:52;;;;;;;19.67;9.67;;;;;;;30.75;79.21;100703.81;5110785;27;66075;-42
2023/06/02 00:27:23;;;;;;;23.55;9.35;;;;;;;30.83;79.53;100708.97;5110137;27;69987;-41
2023/06/02 00:29:54;;;;;;;18.77;8.50;;;;;;;30.90;78.62;100717.88;5106068;27;66369;-41
2023/06/02 00:32:25;;;;;;;17.73;9.15;;;;;;;30.91;78.61;100725.75;5108910;27;70478;-42
2023/06/02 00:34:56;;;;;;;13.65;8.32;;;;;;;30.59;78.73;100661.88;5109377;27;66219;-42
2023/06/02 00:37:27;;;;;;;15.15;8.25;;;;;;;30.98;77.59;100731.13;5111033;27;69802;-42
2023/06/02 00:39:59;;;;;;;19.15;9.05;;;;;;;31.05;77.19;100736.44;5095855;27;66511;-43
2023/06/02 00:42:30;;;;;;;17.67;8.60;;;;;;;30.99;77.05;100726.53;5110751;27;69575;-42
2023/06/02 00:45:01;;;;;;;14.20;8.10;;;;;;;31.12;77.59;100738.03;5104381;27;67793;-41
2023/06/02 00:47:32;;;;;;;18.70;8.07;;;;;;;31.17;77.50;100734.63;5108760;27;69855;-43
2023/06/02 00:50:04;;;;;;;16.30;7.60;;;;;;;31.11;77.41;100728.25;5109324;27;65567;-42
2023/06/02 00:52:39;;;;;;;12.35;7.35;;;;;;;30.45;77.02;100609.75;5107614;27;70005;-43
2023/06/02 00:55:10;;;;;;;9.20;7.35;;;;;;;31.27;77.01;100739.53;5104108;27;65804;-41
2023/06/02 00:57:42;;;;;;;8.68;6.38;;;;;;;31.34;73.50;100737.56;5106442;27;69092;-43
2023/06/02 01:00:14;;;;;;;6.53;5.93;;;;;;;31.32;73.54;100735.09;5107196;27;65725;-41
2023/06/02 01:02:45;;;;;;;7.75;5.35;;;;;;;31.36;72.94;100740.91;5107990;27;69999;-42
2023/06/02 01:05:19;;;;;;;8.93;5.60;;;;;;;31.39;72.61;100735.84;5107780;27;66588;-42
2023/06/02 01:07:58;;;;;;;7.68;5.47;;;;;;;31.43;72.31;100738.97;5105617;27;69356;-41
2023/06/02 01:10:30;;;;;;;10.95;5.18;;;;;;;31.31;72.62;100719.06;5102577;27;64447;-41
2023/06/02 01:13:03;;;;;;;5.55;5.07;;;;;;;31.50;72.79;100750.53;5106349;27;43679;-42
2023/06/02 01:15:34;;;;;;;5.85;5.05;;;;;;;31.26;72.39;100711.63;5087871;27;66346;-42
2023/06/02 01:18:12;;;;;;;6.43;5.07;;;;;;;31.57;72.55;100754.00;5109431;27;69702;-42
2023/06/02 01:20:57;;;;;;;8.55;7.20;;;;;;;31.63;75.41;100760.41;5109456;27;65695;-41
2023/06/02 01:23:52;;;;;;;17.00;6.88;;;;;;;30.82;74.70;100621.50;5103508;27;70987;-43
2023/06/02 01:26:28;;;;;;;7.57;6.13;;;;;;;31.70;74.61;100763.00;5109193;27;66184;-41
2023/06/02 01:28:59;;;;;;;8.82;6.65;;;;;;;31.66;74.42;100754.50;5110979;27;70393;-42
2023/06/02 01:31:46;;;;;;;11.18;6.65;;;;;;;31.65;74.34;100738.47;5104772;27;66729;-41
2023/06/02 01:34:32;;;;;;;11.57;7.05;;;;;;;31.70;74.25;100753.00;5107101;27;70401;-44
2023/06/02 01:37:04;;;;;;;8.00;6.00;;;;;;;31.71;74.23;100737.56;5106652;27;65230;-41
2023/06/02 01:39:37;;;;;;;11.55;5.90;;;;;;;30.91;74.21;100611.16;5106865;27;68973;-44
2023/06/02 01:42:10;;;;;;;7.22;5.95;;;;;;;31.73;74.08;100759.84;5115031;27;65483;-41
2023/06/02 01:44:43;;;;;;;10.65;6.15;;;;;;;31.74;74.21;100743.34;5114539;27;69599;-41
2023/06/02 01:47:14;;;;;;;7.55;5.57;;;;;;;31.76;74.24;100745.81;5113230;27;66383;-42
2023/06/02 01:49:45;;;;;;;6.03;5.35;;;;;;;31.75;74.20;100745.00;5112922;27;70025;-41
2023/06/02 01:52:16;;;;;;;11.52;6.55;;;;;;;31.63;74.36;100727.03;5110804;27;65735;-43
2023/06/02 01:54:48;;;;;;;8.20;5.43;;;;;;;31.81;74.06;100751.38;5107344;27;70055;-41
2023/06/02 01:57:19;;;;;;;9.32;5.03;;;;;;;31.81;74.26;100751.38;5106795;27;66038;-41
2023/06/02 01:59:50;;;;;;;12.00;5.40;;;;;;;31.77;74.22;100744.78;5112710;27;70690;-41
2023/06/02 02:02:20;;;;;;;9.50;5.20;;;;;;;31.85;74.11;100752.59;5107102;27;65894;-42
2023/06/02 02:04:51;;;;;;;6.50;5.82;;;;;;;31.88;73.98;100746.72;5102852;27;70694;-42
2023/06/02 02:07:23;;;;;;;10.15;6.53;;;;;;;31.89;74.23;100747.53;5101880;27;65623;-42
2023/06/02 02:09:54;;;;;;;7.15;5.15;;;;;;;31.91;73.60;100754.41;5113807;27;70208;-43
2023/06/02 02:12:25;;;;;;;10.82;6.45;;;;;;;31.94;73.88;100762.09;5103426;27;66360;-43
2023/06/02 02:14:57;;;;;;;7.60;6.13;;;;;;;31.97;73.84;100753.50;5099820;27;69594;-42
2023/06/02 02:17:28;;;;;;;7.63;4.93;;;;;;;32.03;72.79;100757.16;5100871;27;65628;-42
2023/06/02 02:19:59;;;;;;;5.72;4.50;;;;;;;32.03;72.67;100757.97;5110744;27;69369;-41
2023/06/02 02:22:30;;;;;;;37.50;4.97;;;;;;;32.08;72.36;100767.34;5110157;27;66033;-43
2023/06/02 02:25:00;;;;;;;6.90;4.38;;;;;;;32.12;72.38;100763.09;5104678;27;69684;-43
2023/06/02 02:27:31;;;;;;;5.05;3.95;;;;;;;32.16;72.22;100764.28;5104584;27;66494;-42
2023/06/02 02:30:05;;;;;;;4.32;3.92;;;;;;;32.18;72.02;100765.72;5105672;27;69432;-45
2023/06/02 02:32:41;;;;;;;4.57;4.15;;;;;;;32.01;71.73;100724.84;5128019;27;66551;-42
2023/06/02 02:35:13;;;;;;;4.15;3.72;;;;;;;32.28;71.80;100767.84;5101104;27;69892;-40
2023/06/02 02:37:46;;;;;;;15.02;5.57;;;;;;;32.28;72.36;100767.84;5109369;27;65737;-42
2023/06/02 02:40:21;;;;;;;8.07;5.35;;;;;;;32.24;72.62;100774.81;5111058;27;70460;-42
2023/06/02 02:42:52;;;;;;;8.10;5.05;;;;;;;32.00;72.73;100741.34;5106875;27;66454;-42
2023/06/02 02:45:22;;;;;;;6.93;6.18;;;;;;;32.24;72.74;100778.34;5105433;27;69771;-42
2023/06/02 02:47:54;;;;;;;6.35;5.68;;;;;;;32.25;72.93;100773.75;5101194;27;66646;-43
2023/06/02 02:50:25;;;;;;;8.18;5.47;;;;;;;32.24;72.63;100777.53;5110775;27;70701;-42
2023/06/02 02:52:56;;;;;;;8.32;5.80;;;;;;;32.10;72.70;100751.66;5110072;27;66011;-43
2023/06/02 02:55:28;;;;;;;6.27;5.33;;;;;;;32.25;72.87;100780.00;5111736;27;69285;-44
2023/06/02 02:58:00;;;;;;;8.90;5.93;;;;;;;32.25;72.65;100790.03;5110210;27;66062;-43
2023/06/02 03:00:32;;;;;;;4.70;4.30;;;;;;;32.28;71.74;100759.69;5105973;27;69546;-42
2023/06/02 03:03:03;;;;;;;;;;;;;;;32.20;72.46;100770.88;5090214;27;66057;-42
2023/06/02 03:05:34;;;;;;;4.05;3.75;;;;;;;32.44;71.31;100764.47;5105863;27;68889;-43
2023/06/02 03:08:07;;;;;;;4.25;3.90;;;;;;;32.49;70.91;100758.38;5116094;27;66096;-43
2023/06/02 03:10:38;;;;;;;4.22;3.85;;;;;;;32.60;70.69;100754.84;5114324;27;69957;-43
2023/06/02 03:13:08;;;;;;;4.05;3.58;;;;;;;32.65;70.46;100763.09;5112005;27;66741;-43
2023/06/02 03:15:40;;;;;;;4.00;3.60;;;;;;;32.64;70.17;100744.31;5119532;27;70419;-43
2023/06/02 03:18:14;;;;;;;4.43;3.92;;;;;;;32.61;70.00;100733.94;5102108;27;65582;-43
2023/06/02 03:20:48;;;;;;;4.15;3.60;;;;;;;32.30;69.83;100675.34;5108652;27;69234;-43
2023/06/02 03:23:19;;;;;;;5.72;4.20;;;;;;;32.74;69.60;100732.88;5117706;27;65076;-47
2023/06/02 03:25:51;;;;;;;4.78;4.28;;;;;;;32.16;69.91;100634.03;5112714;27;69675;-44
2023/06/02 03:28:22;;;;;;;6.72;4.00;;;;;;;32.74;69.38;100717.41;5113041;27;66284;-43
2023/06/02 03:30:54;;;;;;;5.18;4.15;;;;;;;32.87;69.33;100725.28;5114885;27;69975;-42
2023/06/02 03:33:25;;;;;;;4.53;4.13;;;;;;;32.88;69.25;100718.00;5109670;27;66639;-44
2023/06/02 03:35:56;;;;;;;5.20;3.97;;;;;;;32.91;69.43;100712.06;5118084;27;70078;-43
2023/06/02 03:38:28;;;;;;;4.30;3.90;;;;;;;32.78;69.00;100690.59;5122627;27;65140;-44
2023/06/02 03:40:59;;;;;;;4.60;4.30;;;;;;;32.94;68.97;100701.53;5116529;27;70135;-45
2023/06/02 03:43:30;;;;;;;4.95;3.90;;;;;;;32.96;68.92;100692.31;5115071;27;65658;-43
2023/06/02 03:46:01;;;;;;;4.53;4.13;;;;;;;32.97;68.99;100694.00;5114131;27;70065;-43
2023/06/02 03:48:33;;;;;;;4.50;4.10;;;;;;;32.97;68.98;100686.66;5112107;27;64680;-43
2023/06/02 03:51:03;;;;;;;5.35;4.22;;;;;;;32.98;68.65;100682.03;5109095;27;70134;-47
2023/06/02 03:53:37;;;;;;;4.40;4.00;;;;;;;33.06;68.78;100676.28;5111474;27;65958;-44
2023/06/02 03:56:08;;;;;;;4.40;4.00;;;;;;;32.86;68.37;100650.28;5113039;27;69600;-43
2023/06/02 03:58:39;;;;;;;3.90;3.60;;;;;;;33.09;68.10;100668.44;5104361;27;65761;-43
2023/06/02 04:01:12;;;;;;;4.40;4.10;;;;;;;33.11;68.20;100673.66;5107250;27;69635;-45
2023/06/02 04:03:44;;;;;;;5.55;3.83;;;;;;;33.13;68.21;100671.53;5118435;27;66676;-43
2023/06/02 04:06:16;;;;;;;4.32;3.90;;;;;;;33.13;68.00;100671.53;5108766;27;69513;-42
2023/06/02 04:08:48;;;;;;;4.13;3.80;;;;;;;33.12;67.88;100675.31;5116620;27;66368;-43
2023/06/02 04:11:22;;;;;;;6.40;4.60;;;;;;;33.08;67.76;100658.66;5107501;27;70172;-43
2023/06/02 04:13:55;;;;;;;4.85;4.22;;;;;;;33.17;67.96;100667.25;5108599;27;66971;-44
2023/06/02 04:16:26;;;;;;;8.20;4.40;;;;;;;32.68;67.67;100585.25;5117977;27;70251;-43
2023/06/02 04:18:56;;;;;;;5.00;4.60;;;;;;;33.20;67.63;100666.78;5111428;27;65337;-44
2023/06/02 04:21:29;;;;;;;4.63;4.22;;;;;;;33.20;67.73;100666.78;5110263;27;70171;-43
2023/06/02 04:24:00;;;;;;;4.93;4.40;;;;;;;33.19;67.71;100656.97;5106288;27;66383;-44
2023/06/02 04:26:31;;;;;;;6.22;4.80;;;;;;;33.19;67.47;100645.28;5108589;27;70293;-44
2023/06/02 04:29:01;;;;;;;7.23;4.40;;;;;;;33.23;67.30;100644.53;5110975;27;67883;-43
2023/06/02 04:31:45;;;;;;;5.13;4.72;;;;;;;32.94;67.03;100597.47;5110869;27;69459;-43
2023/06/02 04:34:26;;;;;;;5.80;4.55;;;;;;;33.27;67.30;100640.28;5101536;27;66139;-42
2023/06/02 04:36:56;;;;;;;4.65;4.30;;;;;;;33.29;67.25;100629.16;5106569;27;70012;-42
2023/06/02 04:39:27;;;;;;;5.25;4.80;;;;;;;33.20;67.22;100606.16;5114896;27;66680;-42
2023/06/02 04:41:59;;;;;;;6.27;5.77;;;;;;;33.30;67.10;100612.63;5116425;27;70145;-44
2023/06/02 04:44:30;;;;;;;8.82;8.13;;;;;;;33.32;67.14;100615.06;5118665;27;65320;-43
2023/06/02 04:47:02;;;;;;;16.25;14.35;;;;;;;33.36;66.76;100599.94;5102566;27;70043;-42
2023/06/02 04:49:33;;;;;;;17.42;16.02;;;;;;;33.34;67.06;100608.31;5103992;27;65254;-43
2023/06/02 04:52:08;;;;;;;19.97;16.63;;;;;;;32.72;66.98;100492.19;5107736;27;70376;-43
2023/06/02 04:54:42;;;;;;;21.95;19.75;;;;;;;33.10;66.36;100594.03;5107160;27;66537;-42
2023/06/02 04:57:15;;;;;;;32.03;27.27;;;;;;;33.19;66.78;100627.09;5107615;27;70331;-43
2023/06/02 04:59:46;;;;;;;31.15;27.20;;;;;;;33.14;67.41;100610.66;5107566;27;67020;-43
2023/06/02 05:02:18;;;;;;;34.92;31.27;;;;;;;32.98;67.79;100586.94;5101877;27;70488;-44
2023/06/02 05:04:49;;;;;;;34.95;31.33;;;;;;;32.85;68.45;100560.91;5107054;27;65738;-43
2023/06/02 05:07:20;;;;;;;34.50;29.20;;;;;;;33.04;68.61;100586.00;5102553;27;70473;-44
2023/06/02 05:09:50;;;;;;;31.02;27.80;;;;;;;33.19;67.77;100583.59;5115201;27;65556;-44
2023/06/02 05:12:22;;;;;;;34.97;31.42;;;;;;;33.11;68.86;100570.38;5105849;27;70143;-43
2023/06/02 05:14:54;;;;;;;32.20;29.17;;;;;;;33.04;67.53;100565.13;5101407;27;65832;-43
2023/06/02 05:17:29;;;;;;;38.15;27.20;;;;;;;32.08;65.33;100441.72;5109311;27;69678;-44
2023/06/02 05:20:02;;;;;;;28.17;25.27;;;;;;;32.74;63.75;100570.72;5107312;27;66742;-44
2023/06/02 05:22:33;;;;;;;26.42;23.90;;;;;;;32.61;62.09;100554.69;5106500;27;69152;-42
2023/06/02 05:25:06;;;;;;;25.35;22.67;;;;;;;32.58;61.66;100547.03;5108495;27;65644;-44
2023/06/02 05:27:41;;;;;;;23.60;21.35;;;;;;;32.47;60.42;100538.66;5103745;27;70380;-44
2023/06/02 05:30:14;;;;;;;23.92;21.27;;;;;;;32.25;59.87;100522.16;5120088;27;66004;-43
2023/06/02 05:32:46;;;;;;;20.75;19.08;;;;;;;32.33;58.95;100531.81;5102349;27;69623;-42
2023/06/02 05:35:17;;;;;;;19.38;17.85;;;;;;;32.12;58.33;100518.88;5125421;27;67728;-42
2023/06/02 05:37:48;;;;;;;18.77;16.83;;;;;;;32.18;57.49;100526.03;5102278;27;69935;-44
2023/06/02 05:40:22;;;;;;;17.50;16.20;;;;;;;32.06;56.58;100523.34;5106132;27;65950;-46
2023/06/02 05:42:53;;;;;;;20.55;15.50;;;;;;;32.13;56.17;100526.78;5113573;27;70435;-44
2023/06/02 05:45:23;;;;;;;18.30;15.43;;;;;;;32.05;55.60;100522.53;5103282;27;65601;-45
2023/06/02 05:47:56;;;;;;;15.90;14.48;;;;;;;32.05;54.90;100511.69;5103303;27;69838;-44
2023/06/02 05:50:26;;;;;;;14.75;13.65;;;;;;;31.99;54.56;100498.25;5099904;27;66529;-45
2023/06/02 05:52:58;;;;;;;13.47;12.47;;;;;;;31.86;53.83;100488.41;5100329;27;70852;-46
2023/06/02 05:55:29;;;;;;;21.77;12.27;;;;;;;31.72;53.29;100476.16;5087080;27;65869;-45
2023/06/02 05:58:01;;;;;;;13.05;12.05;;;;;;;31.78;53.02;100470.59;5106486;27;69246;-46
2023/06/02 06:00:32;;;;;;;12.07;11.32;;;;;;;31.91;52.55;100504.84;5115371;27;66604;-46
2023/06/02 06:03:03;;;;;;;11.90;10.80;;;;;;;31.92;52.18;100513.81;5104948;27;69524;-44
2023/06/02 06:05:37;;;;;;;12.95;9.82;;;;;;;31.91;52.08;100504.84;5105518;27;67027;-44
2023/06/02 06:08:08;;;;;;;10.75;9.93;;;;;;;31.85;51.67;100500.34;5103351;27;69297;-47
2023/06/02 06:10:42;;;;;;;10.68;9.55;;;;;;;31.84;51.69;100512.22;5107058;27;66021;-45
2023/06/02 06:13:16;;;;;;;10.20;8.48;;;;;;;31.26;50.95;100412.69;5099434;27;70282;-46
2023/06/02 06:15:49;;;;;;;11.32;8.02;;;;;;;31.87;50.41;100506.34;5105313;27;66601;-44
2023/06/02 06:18:20;;;;;;;8.90;8.20;;;;;;;31.87;50.32;100490.06;5087538;27;69255;-45
2023/06/02 06:20:51;;;;;;;8.85;8.25;;;;;;;31.86;50.19;100477.56;5107657;27;65967;-44
2023/06/02 06:23:25;;;;;;;9.70;8.95;;;;;;;31.90;49.79;100467.91;5097664;27;69004;-46
2023/06/02 06:25:55;;;;;;;;;;;;;;;31.72;50.17;100468.03;5106227;27;66077;-44
2023/06/02 06:28:26;;;;;;;8.23;7.65;;;;;;;31.90;49.27;100457.06;5115361;27;69873;-44
2023/06/02 06:31:00;;;;;;;8.60;7.90;;;;;;;31.64;48.34;100408.72;5105379;27;66059;-44
2023/06/02 06:33:31;;;;;;;7.75;7.35;;;;;;;31.88;48.62;100459.19;5109133;27;70512;-45
2023/06/02 06:36:02;;;;;;;8.50;7.70;;;;;;;31.91;48.80;100447.88;5094977;27;67138;-47
2023/06/02 06:38:33;;;;;;;8.20;7.63;;;;;;;31.81;48.28;100406.94;5103853;27;70453;-45
2023/06/02 06:41:04;;;;;;;7.67;7.17;;;;;;;31.97;47.64;100452.34;5110957;27;67594;-46
2023/06/02 06:43:36;;;;;;;7.97;7.47;;;;;;;31.97;47.69;100441.50;5107086;27;70645;-44
2023/06/02 06:46:14;;;;;;;7.38;6.88;;;;;;;31.97;46.94;100436.06;5102361;27;67012;-45
2023/06/02 06:48:45;;;;;;;7.13;6.72;;;;;;;31.93;47.07;100417.78;5087808;27;69530;-44
2023/06/02 06:51:20;;;;;;;6.85;6.45;;;;;;;31.99;46.83;100433.13;5102293;27;66368;-45
2023/06/02 06:53:50;;;;;;;7.00;6.50;;;;;;;32.00;46.33;100437.50;5101845;27;70284;-48
2023/06/02 06:56:21;;;;;;;6.10;5.80;;;;;;;31.97;46.07;100430.66;5105644;27;67046;-44
2023/06/02 06:58:53;;;;;;;5.25;4.95;;;;;;;31.91;46.20;100420.75;5099408;27;70322;-45
2023/06/02 07:01:23;;;;;;;5.57;5.23;;;;;;;31.45;45.91;100351.91;5110259;27;66278;-45
2023/06/02 07:03:55;;;;;;;7.40;6.80;;;;;;;31.97;46.78;100429.84;5108242;27;70155;-44
2023/06/02 07:06:25;;;;;;;6.95;6.35;;;;;;;31.91;46.75;100407.19;5106334;27;65478;-45
2023/06/02 07:08:56;;;;;;;6.27;5.87;;;;;;;31.78;46.22;100393.84;5104770;27;71552;-43
2023/06/02 07:11:27;;;;;;;6.80;6.22;;;;;;;31.95;45.99;100421.09;5107668;27;66931;-44
2023/06/02 07:13:59;;;;;;;7.40;6.70;;;;;;;31.75;45.98;100386.19;5113140;27;70423;-44
2023/06/02 07:16:49;;;;;;;7.28;6.57;;;;;;;31.69;45.19;100379.84;5113776;27;65549;-44
2023/06/02 07:19:21;;;;;;;6.30;5.90;;;;;;;31.87;45.34;100403.25;5112450;27;70492;-43
2023/06/02 07:21:52;;;;;;;6.72;6.32;;;;;;;31.93;45.31;100426.78;5108186;27;65972;-47
2023/06/02 07:24:23;;;;;;;7.05;6.55;;;;;;;31.90;45.37;100429.94;5112923;27;70332;-43
2023/06/02 07:26:56;;;;;;;11.87;6.37;;;;;;;31.92;45.19;100433.25;5102151;27;66356;-46
2023/06/02 07:29:27;;;;;;;8.02;6.75;;;;;;;31.93;45.13;100434.91;5103793;27;70435;-45
2023/06/02 07:31:58;;;;;;;7.80;6.65;;;;;;;31.75;45.14;100414.13;5102341;27;66100;-46
2023/06/02 07:34:29;;;;;;;6.90;6.22;;;;;;;31.94;44.91;100452.84;5103844;27;70574;-43
2023/06/02 07:37:02;;;;;;;9.17;6.10;;;;;;;31.91;44.57;100452.47;5111585;27;66853;-45
2023/06/02 07:39:32;;;;;;;7.95;7.05;;;;;;;31.89;44.82;100439.13;5100431;27;69313;-44
2023/06/02 07:42:03;;;;;;;6.95;6.32;;;;;;;31.73;44.57;100418.16;5107281;27;66723;-45
2023/06/02 07:44:34;;;;;;;12.80;6.50;;;;;;;31.79;45.00;100406.38;5109413;27;69858;-45
2023/06/02 07:47:07;;;;;;;7.10;6.28;;;;;;;31.92;44.08;100427.81;5106422;27;65811;-43
2023/06/02 07:49:38;;;;;;;11.05;6.05;;;;;;;32.03;43.90;100429.69;5106861;27;70568;-45
2023/06/02 07:52:08;;;;;;;6.78;5.65;;;;;;;32.07;43.37;100435.50;5117243;27;65830;-43
2023/06/02 07:54:40;;;;;;;7.30;6.85;;;;;;;32.09;43.42;100448.78;5107655;27;68896;-45
2023/06/02 07:57:10;;;;;;;6.68;6.18;;;;;;;32.08;43.17;100447.16;5102235;27;65535;-45
2023/06/02 07:59:42;;;;;;;10.25;6.97;;;;;;;32.02;42.96;100446.22;5115928;27;70587;-44
2023/06/02 08:02:13;;;;;;;9.05;6.13;;;;;;;32.03;42.95;100445.97;5115669;27;65745;-46
2023/06/02 08:04:44;;;;;;;7.53;6.78;;;;;;;32.05;42.68;100459.31;5109281;27;70152;-42
2023/06/02 08:07:15;;;;;;;6.10;5.70;;;;;;;31.86;42.77;100450.44;5105064;27;65076;-43
2023/06/02 08:09:46;;;;;;;6.00;5.60;;;;;;;31.76;43.54;100428.50;5093279;27;69750;-46
2023/06/02 08:12:16;;;;;;;6.93;6.32;;;;;;;31.90;44.85;100448.94;5103178;27;65190;-44
2023/06/02 08:14:47;;;;;;;7.07;6.57;;;;;;;31.64;44.74;100387.03;5106379;27;69106;-41
2023/06/02 08:17:18;;;;;;;6.72;6.32;;;;;;;31.84;44.70;100422.72;5107475;27;65813;-43
2023/06/02 08:19:49;;;;;;;6.90;6.30;;;;;;;31.85;44.28;100421.69;5102695;27;67963;-43
2023/06/02 08:22:20;;;;;;;10.07;7.35;;;;;;;31.80;44.74;100411.53;5103771;27;65627;-43
2023/06/02 08:24:52;;;;;;;7.77;6.50;;;;;;;31.73;44.68;100402.72;5106136;27;69415;-42
2023/06/02 08:27:24;;;;;;;6.18;5.78;;;;;;;31.89;44.48;100412.00;5104828;27;66923;-44
2023/06/02 08:29:58;;;;;;;12.38;6.72;;;;;;;31.91;43.80;100420.75;5106062;27;69197;-44
2023/06/02 08:32:29;;;;;;;6.72;6.22;;;;;;;31.79;43.68;100395.53;5107814;27;65256;-43
2023/06/02 08:35:03;;;;;;;11.70;6.40;;;;;;;32.01;43.86;100434.56;5113796;27;69939;-44
2023/06/02 08:37:34;;;;;;;7.30;6.47;;;;;;;31.48;43.75;100343.34;5110330;27;66702;-43
2023/06/02 08:40:05;;;;;;;7.63;6.75;;;;;;;32.01;43.54;100445.41;5108628;27;70075;-43
2023/06/02 08:42:36;;;;;;;7.65;6.32;;;;;;;31.92;43.63;100437.84;5114832;27;66064;-44
2023/06/02 08:45:08;;;;;;;7.10;6.50;;;;;;;32.06;43.18;100455.53;5107098;27;72086;-45
2023/06/02 08:47:43;;;;;;;7.60;7.00;;;;;;;32.00;43.34;100446.44;5107284;27;66703;-44
2023/06/02 08:50:15;;;;;;;7.03;6.32;;;;;;;32.02;43.21;100454.38;5104277;27;69258;-45
2023/06/02 08:52:46;;;;;;;;;;;;;;;31.85;43.86;100443.38;5109120;27;66035;-44
2023/06/02 08:55:17;;;;;;;11.70;7.25;;;;;;;31.97;43.37;100436.06;5107033;27;70569;-43
2023/06/02 08:57:48;;;;;;;13.55;6.20;;;;;;;32.02;43.34;100433.47;5115630;27;65999;-43
2023/06/02 09:00:20;;;;;;;9.93;7.13;;;;;;;32.03;43.54;100431.59;5112673;27;69678;-45
2023/06/02 09:02:51;;;;;;;9.45;7.30;;;;;;;31.84;43.06;100414.59;5112251;27;66211;-45
2023/06/02 09:05:22;;;;;;;13.38;7.65;;;;;;;31.96;43.76;100448.00;5112002;27;69887;-43
2023/06/02 09:08:08;;;;;;;7.90;7.20;;;;;;;31.88;43.75;100463.78;5111841;27;65913;-45
2023/06/02 09:10:41;;;;;;;7.78;7.07;;;;;;;31.91;43.48;100458.75;5112591;27;69820;-44
2023/06/02 09:13:36;;;;;;;7.30;6.72;;;;;;;31.32;43.41;100373.84;5104173;27;66044;-45
2023/06/02 09:16:09;;;;;;;12.32;6.95;;;;;;;31.97;43.36;100468.63;5105666;27;69934;-48
2023/06/02 09:18:56;;;;;;;7.57;6.97;;;;;;;31.96;43.16;100477.84;5110914;27;64730;-43
2023/06/02 09:21:37;;;;;;;7.30;6.70;;;;;;;32.03;43.32;100481.25;5104129;27;70035;-46
2023/06/02 09:24:08;;;;;;;8.18;7.30;;;;;;;31.84;43.24;100430.88;5116246;27;66394;-44
2023/06/02 09:26:51;;;;;;;7.85;7.15;;;;;;;31.93;43.36;100451.19;5105906;27;70651;-44
2023/06/02 09:29:22;;;;;;;8.43;7.43;;;;;;;32.00;43.21;100457.31;5105241;27;66013;-43
2023/06/02 09:31:56;;;;;;;9.88;7.80;;;;;;;31.22;42.97;100335.66;5103887;27;69568;-44
2023/06/02 09:34:35;;;;;;;10.98;7.53;;;;;;;31.04;43.14;100306.81;5102707;27;65669;-43
2023/06/02 09:37:11;;;;;;;8.40;7.63;;;;;;;31.97;44.53;100456.97;5101525;27;69927;-42
2023/06/02 09:39:49;;;;;;;10.88;8.48;;;;;;;31.47;46.13;100389.66;5113036;27;65525;-42
2023/06/02 09:42:23;;;;;;;10.23;8.63;;;;;;;31.94;45.61;100469.09;5108048;27;70094;-42
2023/06/02 09:45:08;;;;;;;10.93;9.02;;;;;;;31.90;45.01;100478.75;5113926;27;66192;-42
2023/06/02 09:47:41;;;;;;;16.65;9.93;;;;;;;31.29;44.74;100360.75;5110201;27;70673;-41
2023/06/02 09:50:35;;;;;;;10.50;8.75;;;;;;;31.84;44.36;100468.84;5111417;27;65560;-43
2023/06/02 09:53:08;;;;;;;9.73;8.82;;;;;;;31.86;44.19;100460.47;5104536;27;70355;-42
2023/06/02 09:55:39;;;;;;;10.63;9.30;;;;;;;31.85;44.12;100458.84;5089946;27;65924;-43
2023/06/02 09:58:11;;;;;;;12.05;10.77;;;;;;;31.87;44.01;100457.50;5101141;27;70229;-42
2023/06/02 10:00:42;;;;;;;11.38;10.27;;;;;;;31.84;43.61;100452.56;5101698;27;65887;-42
2023/06/02 10:03:13;;;;;;;11.15;10.25;;;;;;;31.80;43.50;100443.28;5103921;27;69389;-43
2023/06/02 10:06:00;;;;;;;11.45;10.48;;;;;;;31.00;43.17;100311.84;5103526;27;67600;-43
2023/06/02 10:08:37;;;;;;;12.57;11.35;;;;;;;31.83;43.52;100462.59;5104741;27;70376;-42
2023/06/02 10:11:32;;;;;;;13.93;11.80;;;;;;;31.00;44.87;100333.50;5103970;27;66676;-41
2023/06/02 10:14:28;;;;;;;20.05;12.00;;;;;;;31.09;46.42;100334.84;5103888;27;69644;-42
2023/06/02 10:17:24;;;;;;;16.88;11.85;;;;;;;31.85;47.53;100465.09;5102929;27;65508;-42
2023/06/02 10:20:22;;;;;;;22.50;12.75;;;;;;;32.00;48.56;100475.47;5105315;27;70129;-42
2023/06/02 10:23:28;;;;;;;15.82;12.65;;;;;;;32.15;49.51;100469.53;5104304;27;66720;-47
2023/06/02 10:26:22;;;;;;;29.65;15.32;;;;;;;31.47;58.81;100363.34;5018728;27;70511;-42
2023/06/02 10:28:54;;;;;;;16.45;13.73;;;;;;;32.26;55.93;100449.69;5102358;27;66739;-44
2023/06/02 10:31:31;;;;;;;16.25;14.57;;;;;;;31.64;55.95;100349.09;5103514;27;69540;-44
2023/06/02 10:34:03;;;;;;;18.85;14.38;;;;;;;32.53;55.54;100465.47;5105396;27;66713;-43
2023/06/02 10:37:01;;;;;;;18.88;14.95;;;;;;;32.61;57.68;100473.25;5104582;27;69117;-44
2023/06/02 10:39:41;;;;;;;17.48;14.20;;;;;;;32.74;57.94;100483.81;5106489;27;66610;-42
2023/06/02 10:42:14;;;;;;;16.60;15.00;;;;;;;32.85;56.25;100496.53;5119089;27;70569;-45
2023/06/02 10:44:47;;;;;;;17.15;15.32;;;;;;;32.88;57.08;100481.63;5101270;27;66300;-45
2023/06/02 10:47:18;;;;;;;23.35;18.98;;;;;;;32.81;61.66;100484.47;5099114;27;70180;-43
2023/06/02 10:50:00;;;;;;;26.42;19.33;;;;;;;31.40;62.43;100254.25;5104033;27;66057;-44
2023/06/02 10:52:55;;;;;;;27.73;18.80;;;;;;;32.64;63.51;100456.47;5102678;27;68074;-46
2023/06/02 10:55:33;;;;;;;25.33;19.37;;;;;;;32.83;64.09;100490.50;5101999;27;66268;-45
2023/06/02 10:58:11;;;;;;;22.70;15.55;;;;;;;32.76;60.91;100465.38;5100142;27;70217;-44
2023/06/02 11:00:47;;;;;;;22.23;16.20;;;;;;;32.98;60.47;100500.00;5103320;27;65599;-44
2023/06/02 11:03:20;;;;;;;24.67;15.93;;;;;;;33.03;60.44;100508.28;5113405;27;69642;-45
2023/06/02 11:05:54;;;;;;;21.35;15.93;;;;;;;33.00;60.34;100514.22;5111791;27;66547;-46
2023/06/02 11:08:28;;;;;;;22.80;16.55;;;;;;;33.08;61.16;100521.97;5111280;27;69845;-47
2023/06/02 11:11:00;;;;;;;22.50;16.48;;;;;;;32.92;60.30;100497.19;5102892;27;65750;-47
2023/06/02 11:13:51;;;;;;;23.20;17.13;;;;;;;32.92;60.25;100513.47;5107236;27;69293;-43
2023/06/02 11:16:21;;;;;;;27.35;18.75;;;;;;;33.16;60.74;100546.03;5102378;27;66929;-44
2023/06/02 11:18:52;;;;;;;36.00;19.65;;;;;;;32.96;60.72;100507.56;5116268;27;69833;-44
2023/06/02 11:21:23;;;;;;;41.83;21.17;;;;;;;33.11;61.46;100538.59;5109139;27;65303;-44
2023/06/02 11:23:54;;;;;;;38.90;22.17;;;;;;;33.22;61.72;100561.34;5116346;27;70389;-44
2023/06/02 11:26:26;;;;;;;37.45;20.95;;;;;;;33.09;61.48;100539.91;5109545;27;66755;-45
2023/06/02 11:29:14;;;;;;;42.67;22.73;;;;;;;33.17;63.51;100563.16;5106740;27;70167;-45
2023/06/02 11:31:49;;;;;;;38.05;22.33;;;;;;;33.19;63.58;100561.84;5117117;27;66444;-45
2023/06/02 11:34:20;;;;;;;39.33;22.45;;;;;;;32.88;62.47;100506.91;5110110;27;70137;-48
2023/06/02 11:36:51;;;;;;;39.63;20.77;;;;;;;33.07;62.50;100547.47;5106069;27;66683;-44
2023/06/02 11:39:22;;;;;;;32.72;20.20;;;;;;;33.27;62.53;100575.03;5111314;27;69868;-46
2023/06/02 11:41:57;;;;;;;37.53;22.00;;;;;;;33.21;63.99;100565.16;5119336;27;66155;-43
2023/06/02 11:44:27;;;;;;;47.55;22.33;;;;;;;33.29;63.31;100578.34;5107033;27;68859;-45
2023/06/02 11:46:58;;;;;;;33.95;20.98;;;;;;;33.32;63.21;100583.31;5117689;27;66371;-46
2023/06/02 11:49:38;;;;;;;31.20;20.23;;;;;;;33.20;65.03;100568.91;5112368;27;70058;-45